createdAt,value
2022-09-26T00:00:45.195Z,14.57
2022-09-26T00:03:12.739Z,14.57
2022-09-26T00:05:40.608Z,14.57
2022-09-26T00:08:08.756Z,14.57
2022-09-26T00:10:36.315Z,14.58
2022-09-26T00:13:03.896Z,14.58
2022-09-26T00:15:32.812Z,14.58
2022-09-26T00:18:00.380Z,14.56
2022-09-26T00:20:27.908Z,14.56
2022-09-26T00:22:55.485Z,14.54
2022-09-26T00:25:23.009Z,14.55
2022-09-26T00:27:50.515Z,14.56
2022-09-26T00:30:18.311Z,14.58
2022-09-26T00:32:47.405Z,14.57
2022-09-26T00:35:14.975Z,14.56
2022-09-26T00:37:42.564Z,14.54
2022-09-26T00:40:10.509Z,14.51
2022-09-26T00:42:38.111Z,14.46
2022-09-26T00:45:06.279Z,14.40
2022-09-26T00:47:37.452Z,14.35
2022-09-26T00:50:08.718Z,14.27
2022-09-26T00:52:39.536Z,14.20
2022-09-26T00:55:08.302Z,14.16
2022-09-26T00:57:38.926Z,14.11
2022-09-26T01:00:07.847Z,14.07
2022-09-26T01:02:35.544Z,14.04
2022-09-26T01:05:04.260Z,13.99
2022-09-26T01:07:34.616Z,13.97
2022-09-26T01:10:03.535Z,13.93
2022-09-26T01:12:32.677Z,13.97
2022-09-26T01:15:00.602Z,13.98
2022-09-26T01:17:28.781Z,13.98
2022-09-26T01:20:04.392Z,14.01
2022-09-26T01:22:44.680Z,14.06
2022-09-26T01:25:19.838Z,14.09
2022-09-26T01:27:58.659Z,14.12
2022-09-26T01:30:29.452Z,14.10
2022-09-26T01:33:11.848Z,14.14
2022-09-26T01:35:54.340Z,14.18
2022-09-26T01:38:26.267Z,14.19
2022-09-26T01:41:04.311Z,14.24
2022-09-26T01:43:35.281Z,14.25
2022-09-26T01:46:07.228Z,14.27
2022-09-26T01:48:37.546Z,14.30
2022-09-26T01:51:09.250Z,14.31
2022-09-26T01:53:41.216Z,14.33
2022-09-26T01:56:11.656Z,14.37
2022-09-26T01:58:42.692Z,14.38
2022-09-26T02:01:13.720Z,14.39
2022-09-26T02:03:44.616Z,14.40
2022-09-26T02:06:14.693Z,14.42
2022-09-26T02:08:45.321Z,14.45
2022-09-26T02:11:15.226Z,14.45
2022-09-26T02:13:46.170Z,14.47
2022-09-26T02:16:18.550Z,14.51
2022-09-26T02:18:48.032Z,14.52
2022-09-26T02:21:17.646Z,14.48
2022-09-26T02:23:45.229Z,14.53
2022-09-26T02:26:12.829Z,14.53
2022-09-26T02:28:40.380Z,14.55
2022-09-26T02:31:11.447Z,14.56
2022-09-26T02:33:40.857Z,14.61
2022-09-26T02:36:10.275Z,14.60
2022-09-26T02:38:38.193Z,14.59
2022-09-26T02:41:29.615Z,14.59
2022-09-26T02:44:04.007Z,14.61
2022-09-26T02:46:51.317Z,14.61
2022-09-26T02:49:29.671Z,14.65
2022-09-26T02:52:03.871Z,14.67
2022-09-26T02:54:36.457Z,14.65
2022-09-26T02:57:11.610Z,14.69
2022-09-26T02:59:47.258Z,14.67
2022-09-26T03:02:17.598Z,14.66
2022-09-26T03:05:01.846Z,14.64
2022-09-26T03:07:31.913Z,14.60
2022-09-26T03:10:01.615Z,14.60
2022-09-26T03:12:32.850Z,14.64
2022-09-26T03:15:01.604Z,14.64
2022-09-26T03:17:29.214Z,14.65
2022-09-26T03:20:02.598Z,14.62
2022-09-26T03:22:31.743Z,14.60
2022-09-26T03:25:00.549Z,14.53
2022-09-26T03:27:28.234Z,14.53
2022-09-26T03:29:59.372Z,14.51
2022-09-26T03:32:28.922Z,14.51
2022-09-26T03:34:58.570Z,14.50
2022-09-26T03:37:26.231Z,14.49
2022-09-26T03:39:53.896Z,14.42
2022-09-26T03:42:37.952Z,14.35
2022-09-26T03:45:07.487Z,14.27
2022-09-26T03:47:56.662Z,14.24
2022-09-26T03:50:26.395Z,14.21
2022-09-26T03:52:54.111Z,14.14
2022-09-26T03:55:22.101Z,14.05
2022-09-26T03:57:49.652Z,13.97
2022-09-26T04:00:26.675Z,13.95
2022-09-26T04:02:54.229Z,13.97
2022-09-26T04:05:43.611Z,13.95
2022-09-26T04:08:12.615Z,13.88
2022-09-26T04:10:42.051Z,13.79
2022-09-26T04:13:09.635Z,13.74
2022-09-26T04:15:37.742Z,13.74
2022-09-26T04:18:09.928Z,13.64
2022-09-26T04:20:37.694Z,13.58
2022-09-26T04:23:06.721Z,13.62
2022-09-26T04:25:37.578Z,13.70
2022-09-26T04:28:05.183Z,13.79
2022-09-26T04:30:32.784Z,13.86
2022-09-26T04:33:02.300Z,13.87
2022-09-26T04:35:32.827Z,13.92
2022-09-26T04:38:00.501Z,13.97
2022-09-26T04:40:30.374Z,14.00
2022-09-26T04:43:03.935Z,14.07
2022-09-26T04:45:31.775Z,14.10
2022-09-26T04:47:59.704Z,14.14
2022-09-26T04:50:47.181Z,14.18
2022-09-26T04:53:14.811Z,14.21
2022-09-26T04:55:54.334Z,14.20
2022-09-26T04:58:21.874Z,14.20
2022-09-26T05:00:49.842Z,14.23
2022-09-26T05:03:28.422Z,14.27
2022-09-26T05:05:56.703Z,14.24
2022-09-26T05:08:24.485Z,14.24
2022-09-26T05:10:54.988Z,14.24
2022-09-26T05:13:23.024Z,14.29
2022-09-26T05:15:53.218Z,14.33
2022-09-26T05:18:23.253Z,14.31
2022-09-26T05:20:51.088Z,14.27
2022-09-26T05:23:44.556Z,14.27
2022-09-26T05:26:20.283Z,14.30
2022-09-26T05:28:49.299Z,14.32
2022-09-26T05:31:17.103Z,14.31
2022-09-26T05:33:46.368Z,14.33
2022-09-26T05:36:15.921Z,14.34
2022-09-26T05:38:43.534Z,14.37
2022-09-26T05:41:11.114Z,14.36
2022-09-26T05:43:40.070Z,14.37
2022-09-26T05:46:12.151Z,14.37
2022-09-26T05:48:46.301Z,14.38
2022-09-26T05:51:21.214Z,14.40
2022-09-26T05:53:49.992Z,14.42
2022-09-26T05:56:21.095Z,14.47
2022-09-26T05:59:02.128Z,14.46
2022-09-26T06:01:35.928Z,14.46
2022-09-26T06:04:16.091Z,14.50
2022-09-26T06:07:02.628Z,14.48
2022-09-26T06:09:31.653Z,14.52
2022-09-26T06:12:23.462Z,14.52
2022-09-26T06:14:53.909Z,14.50
2022-09-26T06:17:21.453Z,14.53
2022-09-26T06:19:49.024Z,14.52
2022-09-26T06:22:16.664Z,14.48
2022-09-26T06:24:44.492Z,14.48
2022-09-26T06:27:15.676Z,14.51
2022-09-26T06:29:43.490Z,14.50
2022-09-26T06:32:12.646Z,14.50
2022-09-26T06:34:58.795Z,14.44
2022-09-26T06:37:42.316Z,14.50
2022-09-26T06:40:11.581Z,14.53
2022-09-26T06:42:39.805Z,14.53
2022-09-26T06:45:27.948Z,14.53
2022-09-26T06:48:23.725Z,14.53
2022-09-26T06:51:14.511Z,14.53
2022-09-26T06:53:42.598Z,14.53
2022-09-26T06:56:11.161Z,14.51
2022-09-26T06:58:39.201Z,14.44
2022-09-26T07:01:08.437Z,14.41
2022-09-26T07:03:55.793Z,14.37
2022-09-26T07:06:38.748Z,14.32
2022-09-26T07:09:12.040Z,14.18
2022-09-26T07:12:13.681Z,14.09
2022-09-26T07:14:39.880Z,13.99
2022-09-26T07:17:19.709Z,13.93
2022-09-26T07:20:10.245Z,13.88
2022-09-26T07:23:04.961Z,13.77
2022-09-26T07:25:33.384Z,13.73
2022-09-26T07:28:02.477Z,13.71
2022-09-26T07:30:42.851Z,13.62
2022-09-26T07:33:33.274Z,13.54
2022-09-26T07:36:08.517Z,13.49
2022-09-26T07:38:36.173Z,13.48
2022-09-26T07:41:04.643Z,13.51
2022-09-26T07:44:19.307Z,13.53
2022-09-26T07:46:44.682Z,13.56
2022-09-26T07:49:29.991Z,13.58
2022-09-26T07:52:12.086Z,13.58
2022-09-26T07:55:18.688Z,13.62
2022-09-26T07:57:52.715Z,13.64
2022-09-26T08:00:31.504Z,13.68
2022-09-26T08:03:07.153Z,13.67
2022-09-26T08:05:38.191Z,13.67
2022-09-26T08:08:07.152Z,13.66
2022-09-26T08:10:53.458Z,13.70
2022-09-26T08:13:39.562Z,13.68
2022-09-26T08:16:20.651Z,13.68
2022-09-26T08:18:48.418Z,13.71
2022-09-26T08:21:16.098Z,13.70
2022-09-26T08:23:46.752Z,13.72
2022-09-26T08:26:43.385Z,13.75
2022-09-26T08:29:17.869Z,13.73
2022-09-26T08:31:47.909Z,13.73
2022-09-26T08:34:15.926Z,13.72
2022-09-26T08:36:52.076Z,13.73
2022-09-26T08:39:34.935Z,13.77
2022-09-26T08:42:33.908Z,13.78
2022-09-26T08:45:49.197Z,13.82
2022-09-26T08:49:10.125Z,13.86
2022-09-26T08:51:40.667Z,13.87
2022-09-26T08:54:12.095Z,13.90
2022-09-26T08:56:44.293Z,13.91
2022-09-26T08:59:15.192Z,13.91
2022-09-26T09:01:44.431Z,13.90
2022-09-26T09:04:18.983Z,13.84
2022-09-26T09:06:47.120Z,13.84
2022-09-26T09:09:17.003Z,13.88
2022-09-26T09:12:09.466Z,13.96
2022-09-26T09:14:45.542Z,14.04
2022-09-26T09:17:31.082Z,14.12
2022-09-26T09:20:34.101Z,14.19
2022-09-26T09:23:43.213Z,14.22
2022-09-26T09:29:10.722Z,14.29
2022-09-26T09:31:41.960Z,14.37
2022-09-26T09:34:33.803Z,14.44
2022-09-26T09:37:22.300Z,14.54
2022-09-26T09:40:12.517Z,14.70
2022-09-26T09:42:52.889Z,14.89
2022-09-26T09:45:25.921Z,15.00
2022-09-26T09:47:53.476Z,15.12
2022-09-26T09:50:31.422Z,15.21
2022-09-26T09:53:09.318Z,15.28
2022-09-26T09:55:47.998Z,15.32
2022-09-26T09:58:33.872Z,15.34
2022-09-26T10:01:09.841Z,15.38
2022-09-26T10:03:41.948Z,15.42
2022-09-26T10:06:44.545Z,15.49
2022-09-26T10:09:39.399Z,15.67
2022-09-26T10:12:14.580Z,15.77
2022-09-26T10:15:06.684Z,15.81
2022-09-26T10:18:25.324Z,15.91
2022-09-26T10:21:08.866Z,16.09
2022-09-26T10:23:38.112Z,16.18
2022-09-26T10:26:10.472Z,16.18
2022-09-26T10:28:45.142Z,16.18
2022-09-26T10:31:22.536Z,16.20
2022-09-26T10:34:22.633Z,16.27
2022-09-26T10:36:50.215Z,16.18
2022-09-26T10:39:36.566Z,16.17
2022-09-26T10:42:14.310Z,16.16
2022-09-26T10:44:43.088Z,16.10
2022-09-26T10:47:24.717Z,16.02
2022-09-26T10:50:13.511Z,15.96
2022-09-26T10:53:04.078Z,15.97
2022-09-26T10:55:34.601Z,16.08
2022-09-26T10:58:07.868Z,16.11
2022-09-26T11:00:41.169Z,16.12
2022-09-26T11:03:17.657Z,16.12
2022-09-26T11:06:24.218Z,16.08
2022-09-26T11:08:56.175Z,16.07
2022-09-26T11:11:43.893Z,16.07
2022-09-26T11:14:11.509Z,16.07
2022-09-26T11:16:50.663Z,16.01
2022-09-26T11:19:22.410Z,15.93
2022-09-26T11:21:55.157Z,15.91
2022-09-26T11:24:26.502Z,15.94
2022-09-26T11:27:04.318Z,15.96
2022-09-26T11:29:39.615Z,15.93
2022-09-26T11:32:14.776Z,15.85
2022-09-26T11:35:03.123Z,15.78
2022-09-26T11:37:45.207Z,15.74
2022-09-26T11:40:23.695Z,15.67
2022-09-26T11:43:03.399Z,15.61
2022-09-26T11:45:40.859Z,15.61
2022-09-26T11:49:03.425Z,15.67
2022-09-26T11:52:07.136Z,15.89
2022-09-26T11:54:46.360Z,16.27
2022-09-26T11:57:21.663Z,16.53
2022-09-26T11:59:59.521Z,16.76
2022-09-26T12:02:40.269Z,16.95
2022-09-26T12:05:27.444Z,17.24
2022-09-26T12:08:01.339Z,17.33
2022-09-26T12:10:34.572Z,17.28
2022-09-26T12:13:16.150Z,17.16
2022-09-26T12:15:54.976Z,17.03
2022-09-26T12:18:26.845Z,16.93
2022-09-26T12:21:01.237Z,16.89
2022-09-26T12:23:32.245Z,16.82
2022-09-26T12:26:08.711Z,16.77
2022-09-26T12:28:43.600Z,16.76
2022-09-26T12:31:19.290Z,16.76
2022-09-26T12:33:55.349Z,16.78
2022-09-26T12:36:31.249Z,16.77
2022-09-26T12:39:09.850Z,16.73
2022-09-26T12:41:44.017Z,16.70
2022-09-26T12:44:24.152Z,16.67
2022-09-26T12:47:00.447Z,16.67
2022-09-26T12:49:37.767Z,16.69
2022-09-26T12:52:09.070Z,16.78
2022-09-26T12:54:51.478Z,16.97
2022-09-26T12:57:27.187Z,17.10
2022-09-26T13:00:02.510Z,17.19
2022-09-26T13:02:35.358Z,17.27
2022-09-26T13:05:12.320Z,17.39
2022-09-26T13:07:48.208Z,17.46
2022-09-26T13:10:22.915Z,17.42
2022-09-26T13:13:02.906Z,17.37
2022-09-26T13:15:35.425Z,17.34
2022-09-26T13:18:07.378Z,17.40
2022-09-26T13:20:40.782Z,17.39
2022-09-26T13:23:11.734Z,17.33
2022-09-26T13:25:49.327Z,17.27
2022-09-26T13:28:20.788Z,17.22
2022-09-26T13:30:50.274Z,17.22
2022-09-26T13:33:21.320Z,17.20
2022-09-26T13:35:51.235Z,17.17
2022-09-26T13:38:23.242Z,17.10
2022-09-26T13:40:55.114Z,17.08
2022-09-26T13:43:29.102Z,17.08
2022-09-26T13:46:00.519Z,17.09
2022-09-26T13:48:33.861Z,17.08
2022-09-26T13:51:06.448Z,17.07
2022-09-26T13:53:37.965Z,17.06
2022-09-26T13:56:25.086Z,17.04
2022-09-26T13:59:04.778Z,16.94
2022-09-26T14:01:33.454Z,16.78
2022-09-26T14:04:22.030Z,16.70
2022-09-26T14:07:26.545Z,16.64
2022-09-26T14:09:55.543Z,16.53
2022-09-26T14:12:33.480Z,16.46
2022-09-26T14:15:20.841Z,16.39
2022-09-26T14:18:04.508Z,16.33
2022-09-26T14:20:34.268Z,16.31
2022-09-26T14:23:01.966Z,16.29
2022-09-26T14:25:48.099Z,16.25
2022-09-26T14:28:22.031Z,16.18
2022-09-26T14:31:08.263Z,16.09
2022-09-26T14:33:37.303Z,15.99
2022-09-26T14:36:23.305Z,15.93
2022-09-26T14:38:51.726Z,15.92
2022-09-26T14:41:20.827Z,15.88
2022-09-26T14:43:49.493Z,15.81
2022-09-26T14:46:18.499Z,15.72
2022-09-26T14:48:47.656Z,15.67
2022-09-26T14:51:26.736Z,15.62
2022-09-26T14:53:57.183Z,15.58
2022-09-26T14:56:32.603Z,15.54
2022-09-26T14:59:21.675Z,15.50
2022-09-26T15:01:49.329Z,15.46
2022-09-26T15:04:21.249Z,15.43
2022-09-26T15:06:49.650Z,15.40
2022-09-26T15:09:20.950Z,15.39
2022-09-26T15:11:49.372Z,15.42
2022-09-26T15:14:26.089Z,15.45
2022-09-26T15:16:55.660Z,15.46
2022-09-26T15:19:26.224Z,15.41
2022-09-26T15:21:55.709Z,15.37
2022-09-26T15:24:24.945Z,15.35
2022-09-26T15:26:52.851Z,15.32
2022-09-26T15:29:21.898Z,15.29
2022-09-26T15:31:49.652Z,15.25
2022-09-26T15:34:19.146Z,15.18
2022-09-26T15:36:49.704Z,15.10
2022-09-26T15:39:36.649Z,15.01
2022-09-26T15:42:21.569Z,14.92
2022-09-26T15:44:49.964Z,14.86
2022-09-26T15:47:27.229Z,14.81
2022-09-26T15:50:03.123Z,14.78
2022-09-26T15:52:35.320Z,14.77
2022-09-26T15:55:03.998Z,14.73
2022-09-26T15:57:31.931Z,14.70
2022-09-26T16:00:01.111Z,14.65
2022-09-26T16:02:30.909Z,14.60
2022-09-26T16:04:58.991Z,14.51
2022-09-26T16:07:27.486Z,14.43
2022-09-26T16:09:57.407Z,14.39
2022-09-26T16:12:26.393Z,14.36
2022-09-26T16:14:55.479Z,14.33
2022-09-26T16:17:24.783Z,14.30
2022-09-26T16:19:53.414Z,14.26
2022-09-26T16:22:36.444Z,14.23
2022-09-26T16:28:03.516Z,13.78
2022-09-26T16:30:37.924Z,13.59
2022-09-26T16:33:26.265Z,13.47
2022-09-26T16:35:54.090Z,13.38
2022-09-26T16:38:24.444Z,13.31
2022-09-26T16:40:52.764Z,13.19
2022-09-26T16:43:26.882Z,13.10
2022-09-26T16:46:00.570Z,13.03
2022-09-26T16:48:38.561Z,12.98
2022-09-26T16:51:14.096Z,12.92
2022-09-26T16:53:44.216Z,12.90
2022-09-26T16:56:13.079Z,12.87
2022-09-26T16:58:44.549Z,12.84
2022-09-26T17:01:29.951Z,12.82
2022-09-26T17:03:57.874Z,12.83
2022-09-26T17:06:25.493Z,12.82
2022-09-26T17:08:53.036Z,12.81
2022-09-26T17:11:20.845Z,12.80
2022-09-26T17:13:50.376Z,12.80
2022-09-26T17:16:18.097Z,12.79
2022-09-26T17:18:45.743Z,12.77
2022-09-26T17:21:13.479Z,12.73
2022-09-26T17:23:42.232Z,12.71
2022-09-26T17:26:15.575Z,12.67
2022-09-26T17:28:43.497Z,12.61
2022-09-26T17:31:19.021Z,12.58
2022-09-26T17:33:47.233Z,12.54
2022-09-26T17:36:20.078Z,12.52
2022-09-26T17:38:47.711Z,12.46
2022-09-26T17:41:15.327Z,12.37
2022-09-26T17:43:42.888Z,12.30
2022-09-26T17:46:15.340Z,12.23
2022-09-26T17:48:44.736Z,12.15
2022-09-26T17:51:13.913Z,12.11
2022-09-26T17:53:49.500Z,12.08
2022-09-26T17:56:17.839Z,12.07
2022-09-26T17:58:46.952Z,12.06
2022-09-26T18:01:22.219Z,12.03
2022-09-26T18:03:51.354Z,11.99
2022-09-26T18:06:28.779Z,11.97
2022-09-26T18:08:59.664Z,11.96
2022-09-26T18:11:27.394Z,11.93
2022-09-26T18:13:55.990Z,11.90
2022-09-26T18:16:25.180Z,11.89
2022-09-26T18:18:52.954Z,11.90
2022-09-26T18:21:20.878Z,11.91
2022-09-26T18:23:51.630Z,11.93
2022-09-26T18:26:26.213Z,11.98
2022-09-26T18:28:54.695Z,11.98
2022-09-26T18:31:28.258Z,11.94
2022-09-26T18:33:57.996Z,11.89
2022-09-26T18:36:26.192Z,11.83
2022-09-26T18:38:53.914Z,11.79
2022-09-26T18:41:24.892Z,11.75
2022-09-26T18:43:53.035Z,11.75
2022-09-26T18:46:21.764Z,11.78
2022-09-26T18:48:49.535Z,11.77
2022-09-26T18:51:18.972Z,11.74
2022-09-26T18:53:46.575Z,11.68
2022-09-26T18:56:46.053Z,11.64
2022-09-26T18:59:14.667Z,11.63
2022-09-26T19:01:43.163Z,11.66
2022-09-26T19:04:13.240Z,11.70
2022-09-26T19:06:43.469Z,11.71
2022-09-26T19:09:13.696Z,11.71
2022-09-26T19:11:41.293Z,11.67
2022-09-26T19:14:13.349Z,11.62
2022-09-26T19:16:41.001Z,11.59
2022-09-26T19:19:08.560Z,11.58
2022-09-26T19:21:37.314Z,11.57
2022-09-26T19:24:11.393Z,11.55
2022-09-26T19:26:40.809Z,11.56
2022-09-26T19:29:12.163Z,11.56
2022-09-26T19:31:40.094Z,11.51
2022-09-26T19:34:07.830Z,11.47
2022-09-26T19:36:35.515Z,11.48
2022-09-26T19:39:03.082Z,11.48
2022-09-26T19:41:32.286Z,11.50
2022-09-26T19:43:59.840Z,11.50
2022-09-26T19:46:28.236Z,11.47
2022-09-26T19:48:55.861Z,11.44
2022-09-26T19:51:24.624Z,11.41
2022-09-26T19:53:52.273Z,11.42
2022-09-26T19:56:19.844Z,11.41
2022-09-26T19:58:50.408Z,11.39
2022-09-26T20:01:19.081Z,11.38
2022-09-26T20:03:46.974Z,11.32
2022-09-26T20:06:15.528Z,11.28
2022-09-26T20:08:43.137Z,11.24
2022-09-26T20:11:11.045Z,11.18
2022-09-26T20:13:52.601Z,11.14
2022-09-26T20:16:21.549Z,11.11
2022-09-26T20:18:51.029Z,11.07
2022-09-26T20:21:20.362Z,11.05
2022-09-26T20:23:47.932Z,11.04
2022-09-26T20:26:17.189Z,11.02
2022-09-26T20:28:45.236Z,11.01
2022-09-26T20:31:18.497Z,11.02
2022-09-26T20:33:47.651Z,11.05
2022-09-26T20:36:15.373Z,11.10
2022-09-26T20:38:47.098Z,11.13
2022-09-26T20:41:19.810Z,11.13
2022-09-26T20:43:49.268Z,11.13
2022-09-26T20:46:16.959Z,11.15
2022-09-26T20:48:46.428Z,11.19
2022-09-26T20:51:19.139Z,11.21
2022-09-26T20:53:46.671Z,11.20
2022-09-26T20:56:16.852Z,11.21
2022-09-26T20:58:44.430Z,11.22
2022-09-26T21:01:13.037Z,11.25
2022-09-26T21:03:44.408Z,11.24
2022-09-26T21:06:17.547Z,11.19
2022-09-26T21:08:45.141Z,11.14
2022-09-26T21:11:13.669Z,11.10
2022-09-26T21:13:41.850Z,11.04
2022-09-26T21:16:11.492Z,11.00
2022-09-26T21:18:39.112Z,11.01
2022-09-26T21:21:07.960Z,11.02
2022-09-26T21:23:59.082Z,11.03
2022-09-26T21:26:27.524Z,11.04
2022-09-26T21:28:55.769Z,11.04
2022-09-26T21:31:24.769Z,11.02
2022-09-26T21:33:53.269Z,10.99
2022-09-26T21:36:21.585Z,10.97
2022-09-26T21:38:50.817Z,10.94
2022-09-26T21:41:20.105Z,10.94
2022-09-26T21:43:48.935Z,10.95
2022-09-26T21:46:17.351Z,10.95
2022-09-26T21:48:45.027Z,10.92
2022-09-26T21:51:13.833Z,10.89
2022-09-26T21:53:45.607Z,10.91
2022-09-26T21:56:14.740Z,10.94
2022-09-26T21:58:44.720Z,10.99
2022-09-26T22:01:14.251Z,11.01
2022-09-26T22:03:42.201Z,11.00
2022-09-26T22:06:10.306Z,10.99
2022-09-26T22:08:37.926Z,10.99
2022-09-26T22:11:05.557Z,10.97
2022-09-26T22:13:34.013Z,10.96
2022-09-26T22:16:06.699Z,10.97
2022-09-26T22:18:35.172Z,10.99
2022-09-26T22:21:03.782Z,11.01
2022-09-26T22:23:31.547Z,11.02
2022-09-26T22:25:59.140Z,11.03
2022-09-26T22:28:27.078Z,11.07
2022-09-26T22:30:55.101Z,11.11
2022-09-26T22:33:24.182Z,11.13
2022-09-26T22:35:51.832Z,11.15
2022-09-26T22:38:19.546Z,11.18
2022-09-26T22:40:47.273Z,11.19
2022-09-26T22:43:14.956Z,11.21
2022-09-26T22:45:42.637Z,11.19
2022-09-26T22:48:10.182Z,11.19
2022-09-26T22:50:39.074Z,11.25
2022-09-26T22:53:06.611Z,11.31
2022-09-26T22:55:34.119Z,11.34
2022-09-26T22:58:01.740Z,11.35
2022-09-26T23:00:29.274Z,11.32
2022-09-26T23:02:56.918Z,11.21
2022-09-26T23:05:24.502Z,11.06
2022-09-26T23:07:55.069Z,10.94
2022-09-26T23:10:23.125Z,10.87
2022-09-26T23:12:50.947Z,10.84
2022-09-26T23:15:19.307Z,10.82
2022-09-26T23:17:47.483Z,10.81
2022-09-26T23:20:15.112Z,10.77
2022-09-26T23:22:42.646Z,10.78
2022-09-26T23:25:11.797Z,10.78
2022-09-26T23:27:39.345Z,10.77
2022-09-26T23:30:07.659Z,10.76
2022-09-26T23:32:35.220Z,10.73
2022-09-26T23:35:02.760Z,10.74
2022-09-26T23:37:31.448Z,10.75
2022-09-26T23:39:58.965Z,10.78
2022-09-26T23:42:27.877Z,10.81
2022-09-26T23:44:55.419Z,10.81
2022-09-26T23:47:22.962Z,10.79
2022-09-26T23:49:50.450Z,10.81
2022-09-26T23:52:18.237Z,10.78
2022-09-26T23:54:45.808Z,10.72
2022-09-26T23:57:13.362Z,10.66
2022-09-26T23:59:42.314Z,10.61
